createdAt,value
2018-05-27T00:01:05.574Z,8.23
2018-05-27T00:03:35.257Z,8.50
2018-05-27T00:06:07.941Z,7.93
2018-05-27T00:08:37.185Z,8.13
2018-05-27T00:11:06.053Z,7.90
2018-05-27T00:13:35.376Z,8.07
2018-05-27T00:16:04.581Z,7.90
2018-05-27T00:18:33.056Z,7.83
2018-05-27T00:21:03.769Z,7.47
2018-05-27T00:23:32.320Z,7.87
2018-05-27T00:26:02.156Z,8.93
2018-05-27T00:28:30.646Z,7.93
2018-05-27T00:30:59.112Z,7.73
2018-05-27T00:33:29.014Z,7.83
2018-05-27T00:35:57.827Z,7.90
2018-05-27T00:38:26.354Z,8.03
2018-05-27T00:40:56.149Z,8.20
2018-05-27T00:43:24.907Z,8.00
2018-05-27T00:45:53.670Z,7.57
2018-05-27T00:48:22.959Z,7.70
2018-05-27T00:50:51.449Z,7.47
2018-05-27T00:53:20.449Z,8.30
2018-05-27T00:55:49.823Z,7.57
2018-05-27T00:58:19.149Z,7.43
2018-05-27T01:00:48.727Z,7.90
2018-05-27T01:03:17.902Z,8.03
2018-05-27T01:05:46.389Z,7.87
2018-05-27T01:08:15.752Z,7.60
2018-05-27T01:10:44.400Z,7.37
2018-05-27T01:13:12.874Z,7.90
2018-05-27T01:15:41.637Z,7.70
2018-05-27T01:18:10.184Z,7.73
2018-05-27T01:20:40.213Z,7.47
2018-05-27T01:23:09.446Z,7.37
2018-05-27T01:25:43.674Z,7.40
2018-05-27T01:28:12.895Z,7.13
2018-05-27T01:30:41.377Z,7.17
2018-05-27T01:33:09.877Z,7.63
2018-05-27T01:35:39.106Z,7.50
2018-05-27T01:38:07.620Z,7.30
2018-05-27T01:40:36.405Z,7.43
2018-05-27T01:43:07.186Z,7.00
2018-05-27T01:45:35.685Z,6.60
2018-05-27T01:48:05.637Z,7.80
2018-05-27T01:50:34.953Z,7.57
2018-05-27T01:53:06.464Z,7.67
2018-05-27T01:55:35.581Z,7.43
2018-05-27T01:58:04.228Z,7.30
2018-05-27T02:00:33.486Z,8.77
2018-05-27T02:03:04.045Z,8.97
2018-05-27T02:05:33.525Z,8.93
2018-05-27T02:08:02.897Z,8.33
2018-05-27T02:10:31.461Z,7.43
2018-05-27T02:13:00.004Z,7.23
2018-05-27T02:15:28.772Z,7.40
2018-05-27T02:17:59.032Z,7.83
2018-05-27T02:20:28.335Z,7.93
2018-05-27T02:22:58.245Z,7.60
2018-05-27T02:25:28.886Z,7.30
2018-05-27T02:27:58.081Z,7.07
2018-05-27T02:30:26.713Z,7.47
2018-05-27T02:32:55.328Z,7.40
2018-05-27T02:35:24.512Z,7.60
2018-05-27T02:37:53.017Z,7.20
2018-05-27T02:40:23.202Z,7.20
2018-05-27T02:42:53.118Z,7.40
2018-05-27T02:45:21.639Z,7.17
2018-05-27T02:47:50.893Z,7.20
2018-05-27T02:50:22.074Z,6.97
2018-05-27T02:52:51.060Z,6.90
2018-05-27T02:55:19.942Z,6.63
2018-05-27T02:57:48.433Z,6.60
2018-05-27T03:00:16.946Z,7.07
2018-05-27T03:02:45.805Z,6.67
2018-05-27T03:05:14.600Z,7.13
2018-05-27T03:07:44.076Z,6.43
2018-05-27T03:10:12.580Z,6.70
2018-05-27T03:15:44.638Z,6.50
2018-05-27T03:18:13.930Z,6.50
2018-05-27T03:20:43.193Z,7.37
2018-05-27T03:23:12.531Z,6.40
2018-05-27T03:25:43.348Z,6.60
2018-05-27T03:28:11.868Z,6.30
2018-05-27T03:30:41.375Z,6.30
2018-05-27T03:33:10.932Z,6.17
2018-05-27T03:35:40.371Z,6.40
2018-05-27T03:38:10.277Z,6.93
2018-05-27T03:40:39.800Z,6.20
2018-05-27T03:43:09.200Z,6.30
2018-05-27T03:45:41.985Z,6.10
2018-05-27T03:48:15.469Z,6.10
2018-05-27T03:50:45.572Z,6.40
2018-05-27T03:53:14.379Z,6.07
2018-05-27T03:55:45.972Z,6.40
2018-05-27T03:58:15.491Z,6.40
2018-05-27T04:00:43.994Z,6.27
2018-05-27T04:03:13.776Z,6.10
2018-05-27T04:07:58.024Z,5.70
2018-05-27T04:10:27.476Z,6.10
2018-05-27T04:12:58.073Z,6.10
2018-05-27T04:15:26.614Z,5.67
2018-05-27T04:17:55.119Z,6.23
2018-05-27T04:20:24.909Z,5.80
2018-05-27T04:22:55.009Z,5.90
2018-05-27T04:25:23.613Z,5.70
2018-05-27T04:27:52.879Z,5.90
2018-05-27T04:30:21.695Z,6.50
2018-05-27T04:32:50.180Z,6.10
2018-05-27T04:35:18.716Z,6.13
2018-05-27T04:37:47.245Z,6.10
2018-05-27T04:40:15.924Z,5.90
2018-05-27T04:42:45.038Z,6.10
2018-05-27T04:45:14.587Z,5.57
2018-05-27T04:47:43.116Z,5.90
2018-05-27T04:50:11.742Z,5.97
2018-05-27T04:52:41.195Z,5.77
2018-05-27T04:55:10.043Z,6.00
2018-05-27T04:57:39.767Z,5.50
2018-05-27T05:00:08.397Z,5.50
2018-05-27T05:02:37.741Z,6.27
2018-05-27T05:05:06.537Z,5.90
2018-05-27T05:07:35.352Z,5.60
2018-05-27T05:10:04.930Z,5.80
2018-05-27T05:12:34.441Z,5.53
2018-05-27T05:15:03.262Z,5.50
2018-05-27T05:17:33.533Z,5.37
2018-05-27T05:20:03.058Z,5.63
2018-05-27T05:22:31.604Z,5.30
2018-05-27T05:25:01.000Z,5.37
2018-05-27T05:27:31.035Z,5.20
2018-05-27T05:29:59.805Z,5.83
2018-05-27T05:32:29.121Z,5.37
2018-05-27T05:34:57.620Z,5.80
2018-05-27T05:37:26.837Z,5.50
2018-05-27T05:39:55.689Z,5.73
2018-05-27T05:42:24.965Z,5.50
2018-05-27T05:44:53.557Z,5.77
2018-05-27T05:47:23.476Z,4.80
2018-05-27T05:49:52.339Z,5.30
2018-05-27T05:52:21.647Z,5.00
2018-05-27T05:54:50.286Z,5.50
2018-05-27T05:57:19.123Z,5.50
2018-05-27T05:59:47.643Z,5.40
2018-05-27T06:02:16.238Z,5.50
2018-05-27T06:04:45.684Z,5.30
2018-05-27T06:07:17.195Z,5.30
2018-05-27T06:09:46.586Z,4.80
2018-05-27T06:12:17.560Z,5.20
2018-05-27T06:14:46.103Z,5.53
2018-05-27T06:17:14.715Z,4.83
2018-05-27T06:19:43.527Z,5.07
2018-05-27T06:22:13.651Z,5.27
2018-05-27T06:24:42.928Z,5.03
2018-05-27T06:27:12.102Z,5.10
2018-05-27T06:29:40.662Z,5.30
2018-05-27T06:32:10.215Z,4.83
2018-05-27T06:34:38.877Z,5.47
2018-05-27T06:37:09.295Z,5.30
2018-05-27T06:39:38.548Z,4.80
2018-05-27T06:42:07.435Z,5.03
2018-05-27T06:44:36.091Z,5.07
2018-05-27T06:47:05.144Z,5.07
2018-05-27T06:49:33.716Z,5.23
2018-05-27T06:52:03.039Z,5.20
2018-05-27T06:54:32.362Z,4.80
2018-05-27T06:57:02.179Z,5.07
2018-05-27T06:59:30.912Z,4.73
2018-05-27T07:01:59.459Z,4.63
2018-05-27T07:04:28.944Z,5.10
2018-05-27T07:06:58.499Z,5.70
2018-05-27T07:09:27.583Z,5.50
2018-05-27T07:11:56.505Z,5.90
2018-05-27T07:14:26.154Z,5.53
2018-05-27T07:16:54.832Z,5.63
2018-05-27T07:19:23.605Z,5.67
2018-05-27T07:21:52.188Z,5.77
2018-05-27T07:24:21.327Z,5.90
2018-05-27T07:26:49.870Z,5.70
2018-05-27T07:29:19.260Z,5.77
2018-05-27T07:31:48.541Z,5.30
2018-05-27T07:34:17.545Z,5.80
2018-05-27T07:36:46.099Z,5.33
2018-05-27T07:39:14.645Z,5.37
2018-05-27T07:41:43.256Z,5.27
2018-05-27T07:44:12.258Z,4.93
2018-05-27T07:46:41.897Z,5.80
2018-05-27T07:49:10.513Z,5.47
2018-05-27T07:51:39.205Z,5.50
2018-05-27T07:54:08.225Z,5.50
2018-05-27T07:56:36.804Z,5.80
2018-05-27T07:59:05.398Z,5.67
2018-05-27T08:01:34.874Z,5.30
2018-05-27T08:04:04.186Z,5.60
2018-05-27T08:06:33.054Z,5.33
2018-05-27T08:09:02.781Z,5.70
2018-05-27T08:11:33.655Z,5.27
2018-05-27T08:14:02.324Z,5.27
2018-05-27T08:16:30.917Z,5.40
2018-05-27T08:18:59.635Z,5.03
2018-05-27T08:21:28.999Z,5.40
2018-05-27T08:23:58.400Z,5.17
2018-05-27T08:26:30.672Z,5.30
2018-05-27T08:28:59.928Z,5.07
2018-05-27T08:31:29.252Z,5.00
2018-05-27T08:34:00.104Z,4.37
2018-05-27T08:36:30.461Z,4.97
2018-05-27T08:38:59.836Z,4.97
2018-05-27T08:41:28.462Z,5.00
2018-05-27T08:43:57.843Z,5.20
2018-05-27T08:46:27.270Z,5.13
2018-05-27T08:48:56.657Z,5.10
2018-05-27T08:51:25.529Z,5.00
2018-05-27T08:53:54.036Z,5.27
2018-05-27T08:56:23.242Z,5.07
2018-05-27T08:58:52.545Z,5.40
2018-05-27T09:01:21.442Z,5.70
2018-05-27T09:03:50.988Z,5.67
2018-05-27T09:06:20.438Z,6.20
2018-05-27T09:08:49.739Z,6.37
2018-05-27T09:11:18.572Z,6.67
2018-05-27T09:13:47.359Z,6.70
2018-05-27T09:16:15.984Z,6.70
2018-05-27T09:18:45.277Z,7.23
2018-05-27T09:21:13.900Z,7.10
2018-05-27T09:23:43.483Z,7.40
2018-05-27T09:26:12.391Z,7.50
2018-05-27T09:28:41.892Z,7.83
2018-05-27T09:31:10.552Z,7.47
2018-05-27T09:33:39.225Z,8.03
2018-05-27T09:36:09.043Z,8.57
2018-05-27T09:38:38.396Z,8.40
2018-05-27T09:41:07.715Z,8.37
2018-05-27T09:43:36.358Z,8.87
2018-05-27T09:46:05.248Z,8.70
2018-05-27T09:48:33.773Z,8.27
2018-05-27T09:51:05.585Z,8.33
2018-05-27T09:53:34.938Z,6.90
2018-05-27T09:56:04.601Z,7.00
2018-05-27T09:58:33.225Z,6.63
2018-05-27T10:01:02.301Z,10.97
2018-05-27T10:03:31.672Z,8.90
2018-05-27T10:06:00.677Z,7.27
2018-05-27T10:08:29.587Z,6.03
2018-05-27T10:10:59.868Z,5.57
2018-05-27T10:13:32.100Z,5.80
2018-05-27T10:16:00.740Z,6.87
2018-05-27T10:18:29.298Z,9.63
2018-05-27T10:20:57.816Z,10.17
2018-05-27T10:23:26.706Z,8.27
2018-05-27T10:25:57.167Z,7.07
2018-05-27T10:28:25.736Z,7.03
2018-05-27T10:30:55.025Z,6.20
2018-05-27T10:33:25.349Z,5.87
2018-05-27T10:35:55.931Z,10.60
2018-05-27T10:38:24.463Z,14.33
2018-05-27T10:40:53.799Z,12.90
2018-05-27T10:43:22.367Z,12.03
2018-05-27T10:45:51.698Z,7.03
2018-05-27T10:48:20.590Z,8.33
2018-05-27T10:50:49.903Z,5.43
2018-05-27T10:53:18.434Z,5.57
2018-05-27T10:55:48.317Z,5.60
2018-05-27T10:58:18.278Z,5.40
2018-05-27T11:00:47.415Z,4.80
2018-05-27T11:03:18.157Z,34.03
2018-05-27T11:05:46.777Z,15.43
2018-05-27T11:08:15.384Z,13.97
2018-05-27T11:10:43.949Z,218.40
2018-05-27T11:13:14.141Z,198.63
2018-05-27T11:15:44.303Z,58.97
2018-05-27T11:18:15.023Z,49.70
2018-05-27T11:20:43.659Z,31.43
2018-05-27T11:23:14.176Z,24.27
2018-05-27T11:25:42.820Z,21.50
2018-05-27T11:28:12.183Z,18.80
2018-05-27T11:30:41.392Z,15.40
2018-05-27T11:33:10.019Z,12.43
2018-05-27T11:35:38.622Z,9.90
2018-05-27T11:38:07.782Z,9.10
2018-05-27T11:40:37.970Z,8.87
2018-05-27T11:43:07.352Z,7.80
2018-05-27T11:45:35.932Z,6.83
2018-05-27T11:48:05.744Z,7.13
2018-05-27T11:50:34.271Z,6.90
2018-05-27T11:53:02.857Z,7.70
2018-05-27T11:55:32.145Z,7.17
2018-05-27T11:58:01.224Z,7.00
2018-05-27T12:00:30.565Z,6.37
2018-05-27T12:03:00.522Z,6.37
2018-05-27T12:05:29.884Z,6.57
2018-05-27T12:07:59.509Z,6.67
2018-05-27T12:10:29.011Z,6.50
2018-05-27T12:12:59.700Z,6.33
2018-05-27T12:15:30.169Z,6.53
2018-05-27T12:17:58.740Z,6.50
2018-05-27T12:25:06.515Z,6.80
2018-05-27T12:27:37.302Z,6.03
2018-05-27T12:30:10.698Z,6.33
2018-05-27T12:32:41.427Z,6.10
2018-05-27T12:35:11.000Z,6.40
2018-05-27T12:37:47.072Z,6.10
2018-05-27T12:40:16.673Z,6.30
2018-05-27T12:42:46.503Z,6.60
2018-05-27T12:45:15.053Z,5.50
2018-05-27T12:48:12.726Z,5.17
2018-05-27T12:50:43.113Z,5.17
2018-05-27T12:53:12.875Z,5.10
2018-05-27T12:55:41.468Z,4.80
2018-05-27T12:58:35.992Z,5.37
2018-05-27T13:01:06.060Z,5.30
2018-05-27T13:03:34.960Z,5.50
2018-05-27T13:06:04.228Z,4.80
2018-05-27T13:08:32.889Z,4.50
2018-05-27T13:11:02.857Z,5.30
2018-05-27T13:13:31.756Z,4.90
2018-05-27T13:16:02.636Z,4.80
2018-05-27T13:18:31.981Z,5.60
2018-05-27T13:21:00.763Z,5.50
2018-05-27T13:23:30.685Z,5.47
2018-05-27T13:26:01.594Z,5.23
2018-05-27T13:28:30.277Z,4.97
2018-05-27T13:31:00.940Z,4.90
2018-05-27T13:33:29.624Z,5.20
2018-05-27T13:35:58.873Z,4.70
2018-05-27T13:38:28.579Z,4.83
2018-05-27T13:40:58.185Z,4.60
2018-05-27T13:43:26.749Z,4.57
2018-05-27T13:45:55.649Z,4.80
2018-05-27T13:48:24.837Z,4.07
2018-05-27T13:50:53.432Z,4.77
2018-05-27T13:53:22.040Z,4.23
2018-05-27T13:55:51.401Z,4.50
2018-05-27T13:58:21.010Z,4.50
2018-05-27T14:00:50.484Z,3.80
2018-05-27T14:03:19.298Z,4.13
2018-05-27T14:05:48.650Z,4.20
2018-05-27T14:08:20.209Z,4.17
2018-05-27T14:10:49.598Z,4.20
2018-05-27T14:13:19.368Z,3.80
2018-05-27T14:15:48.010Z,3.60
2018-05-27T14:18:17.427Z,4.37
2018-05-27T14:20:46.511Z,4.43
2018-05-27T14:23:15.406Z,3.90
2018-05-27T14:25:45.866Z,3.70
2018-05-27T14:28:15.230Z,3.70
2018-05-27T14:30:45.842Z,3.87
2018-05-27T14:33:16.630Z,3.93
2018-05-27T14:35:47.445Z,3.67
2018-05-27T14:38:16.062Z,3.90
2018-05-27T14:40:44.786Z,3.80
2018-05-27T14:43:14.159Z,3.77
2018-05-27T14:45:44.348Z,3.80
2018-05-27T14:48:12.938Z,3.47
2018-05-27T14:50:42.647Z,3.47
2018-05-27T14:53:11.987Z,3.53
2018-05-27T14:55:41.068Z,3.93
2018-05-27T14:58:10.463Z,3.63
2018-05-27T15:00:39.644Z,3.60
2018-05-27T15:03:08.197Z,3.37
2018-05-27T15:05:40.135Z,4.03
2018-05-27T15:08:08.974Z,3.57
2018-05-27T15:10:37.941Z,3.73
2018-05-27T15:13:07.360Z,3.93
2018-05-27T15:15:37.056Z,3.70
2018-05-27T15:18:07.351Z,3.70
2018-05-27T15:20:36.977Z,4.10
2018-05-27T15:23:05.869Z,4.10
2018-05-27T15:25:34.419Z,3.80
2018-05-27T15:28:03.875Z,3.73
2018-05-27T15:30:32.738Z,3.70
2018-05-27T15:33:01.535Z,3.70
2018-05-27T15:35:31.713Z,3.90
2018-05-27T15:38:00.587Z,3.77
2018-05-27T15:40:29.399Z,3.90
2018-05-27T15:43:03.251Z,3.70
2018-05-27T15:45:32.609Z,4.00
2018-05-27T15:48:01.165Z,3.83
2018-05-27T15:50:30.018Z,3.77
2018-05-27T15:52:59.431Z,3.80
2018-05-27T15:55:29.459Z,4.20
2018-05-27T15:57:59.660Z,4.03
2018-05-27T16:00:29.124Z,3.87
2018-05-27T16:02:57.729Z,4.00
2018-05-27T16:05:26.690Z,4.13
2018-05-27T16:07:56.258Z,4.03
2018-05-27T16:10:25.611Z,3.90
2018-05-27T16:12:54.171Z,3.90
2018-05-27T16:15:23.849Z,4.03
2018-05-27T16:17:54.031Z,3.97
2018-05-27T16:20:22.814Z,4.10
2018-05-27T16:22:51.363Z,4.17
2018-05-27T16:25:20.317Z,4.10
2018-05-27T16:27:51.425Z,4.40
2018-05-27T16:30:20.085Z,4.03
2018-05-27T16:32:48.730Z,4.00
2018-05-27T16:35:18.707Z,4.10
2018-05-27T16:37:47.236Z,4.17
2018-05-27T16:40:16.589Z,4.33
2018-05-27T16:42:45.775Z,3.90
2018-05-27T16:45:15.355Z,4.03
2018-05-27T16:47:44.677Z,4.20
2018-05-27T16:50:13.945Z,3.63
2018-05-27T16:52:42.569Z,4.07
2018-05-27T16:55:11.188Z,4.30
2018-05-27T16:57:39.758Z,4.10
2018-05-27T17:00:09.164Z,3.83
2018-05-27T17:02:37.738Z,3.70
2018-05-27T17:05:06.284Z,4.20
2018-05-27T17:07:35.671Z,4.07
2018-05-27T17:10:05.694Z,3.93
2018-05-27T17:12:35.020Z,3.87
2018-05-27T17:15:03.756Z,4.00
2018-05-27T17:17:34.106Z,3.87
2018-05-27T17:20:04.041Z,3.97
2018-05-27T17:22:32.604Z,4.17
2018-05-27T17:25:01.266Z,3.97
2018-05-27T17:27:30.548Z,4.00
2018-05-27T17:29:59.068Z,4.00
2018-05-27T17:32:28.403Z,3.60
2018-05-27T17:34:57.893Z,4.03
2018-05-27T17:37:27.241Z,3.60
2018-05-27T17:39:55.802Z,3.70
2018-05-27T17:42:24.490Z,3.80
2018-05-27T17:44:53.657Z,3.70
2018-05-27T17:47:22.275Z,4.20
2018-05-27T17:49:51.609Z,4.17
2018-05-27T17:52:20.290Z,4.10
2018-05-27T17:54:49.080Z,4.07
2018-05-27T17:57:18.693Z,3.90
2018-05-27T17:59:47.520Z,4.20
2018-05-27T18:02:17.681Z,4.00
2018-05-27T18:04:46.415Z,4.00
2018-05-27T18:07:15.817Z,4.33
2018-05-27T18:09:45.182Z,3.70
2018-05-27T18:12:13.719Z,4.00
2018-05-27T18:14:42.253Z,3.90
2018-05-27T18:17:11.166Z,3.77
2018-05-27T18:19:39.897Z,3.93
2018-05-27T18:22:08.502Z,3.70
2018-05-27T18:24:37.304Z,4.10
2018-05-27T18:27:06.285Z,3.97
2018-05-27T18:29:34.926Z,3.87
2018-05-27T18:32:04.983Z,4.00
2018-05-27T18:34:33.555Z,3.70
2018-05-27T18:37:03.560Z,3.90
2018-05-27T18:39:32.271Z,4.27
2018-05-27T18:42:03.118Z,3.97
2018-05-27T18:44:31.741Z,4.20
2018-05-27T18:47:01.958Z,3.97
2018-05-27T18:49:31.322Z,4.37
2018-05-27T18:51:59.881Z,4.70
2018-05-27T18:54:28.556Z,4.13
2018-05-27T18:56:57.102Z,4.50
2018-05-27T18:59:25.996Z,4.60
2018-05-27T19:01:55.674Z,4.67
2018-05-27T19:04:24.233Z,4.93
2018-05-27T19:06:53.567Z,4.67
2018-05-27T19:09:22.469Z,5.00
2018-05-27T19:11:51.038Z,4.90
2018-05-27T19:14:19.751Z,4.50
2018-05-27T19:16:48.806Z,4.83
2018-05-27T19:19:18.246Z,5.03
2018-05-27T19:21:46.971Z,4.50
2018-05-27T19:24:15.607Z,4.63
2018-05-27T19:26:44.156Z,4.57
2018-05-27T19:29:14.565Z,4.93
2018-05-27T19:31:43.225Z,5.03
2018-05-27T19:34:12.806Z,4.60
2018-05-27T19:36:41.495Z,4.63
2018-05-27T19:39:10.222Z,4.50
2018-05-27T19:41:40.499Z,4.50
2018-05-27T19:44:09.197Z,4.80
2018-05-27T19:46:37.746Z,4.43
2018-05-27T19:49:07.340Z,4.63
2018-05-27T19:51:35.963Z,4.70
2018-05-27T19:54:04.558Z,4.70
2018-05-27T19:56:34.083Z,4.80
2018-05-27T19:59:03.836Z,4.57
2018-05-27T20:01:32.654Z,4.67
2018-05-27T20:04:01.297Z,4.33
2018-05-27T20:06:30.873Z,4.87
2018-05-27T20:09:00.810Z,4.80
2018-05-27T20:11:30.261Z,4.43
2018-05-27T20:13:58.958Z,4.70
2018-05-27T20:16:28.034Z,4.57
2018-05-27T20:18:56.643Z,4.63
2018-05-27T20:21:25.461Z,4.90
2018-05-27T20:23:55.893Z,4.67
2018-05-27T20:26:26.650Z,4.73
2018-05-27T20:28:55.312Z,5.00
2018-05-27T20:31:25.046Z,4.90
2018-05-27T20:33:53.589Z,4.57
2018-05-27T20:36:22.244Z,5.13
2018-05-27T20:38:50.835Z,4.90
2018-05-27T20:48:07.768Z,4.73
2018-05-27T20:50:36.385Z,4.60
2018-05-27T20:53:05.205Z,4.90
2018-05-27T20:55:34.483Z,4.97
2018-05-27T20:58:04.326Z,4.50
2018-05-27T21:00:32.926Z,5.10
2018-05-27T21:03:01.805Z,4.93
2018-05-27T21:05:31.128Z,4.93
2018-05-27T21:08:01.352Z,5.10
2018-05-27T21:10:29.967Z,4.80
2018-05-27T21:12:58.588Z,5.23
2018-05-27T21:15:27.961Z,5.10
2018-05-27T21:17:56.926Z,5.20
2018-05-27T21:20:25.474Z,5.20
2018-05-27T21:22:54.720Z,5.13
2018-05-27T21:25:24.386Z,4.90
2018-05-27T21:27:53.378Z,5.43
2018-05-27T21:30:22.620Z,5.17
2018-05-27T21:32:51.165Z,5.10
2018-05-27T21:35:19.821Z,5.17
2018-05-27T21:37:49.242Z,5.50
2018-05-27T21:40:18.513Z,5.73
2018-05-27T21:42:48.236Z,5.60
2018-05-27T21:45:18.453Z,5.83
2018-05-27T21:47:46.977Z,5.40
2018-05-27T21:50:15.803Z,5.90
2018-05-27T21:52:45.223Z,5.53
2018-05-27T21:55:15.037Z,5.80
2018-05-27T21:57:43.750Z,5.73
2018-05-27T22:00:12.779Z,5.53
2018-05-27T22:02:46.210Z,5.23
2018-05-27T22:05:15.488Z,5.50
2018-05-27T22:07:44.045Z,5.57
2018-05-27T22:10:14.177Z,5.23
2018-05-27T22:12:42.716Z,5.47
2018-05-27T22:15:13.177Z,5.47
2018-05-27T22:17:41.797Z,5.60
2018-05-27T22:20:11.205Z,5.17
2018-05-27T22:22:40.541Z,5.00
2018-05-27T22:25:09.893Z,4.73
2018-05-27T22:27:39.640Z,5.23
2018-05-27T22:30:09.241Z,5.07
2018-05-27T22:32:37.786Z,5.57
2018-05-27T22:35:07.003Z,5.63
2018-05-27T22:37:36.353Z,5.83
2018-05-27T22:40:05.688Z,5.13
2018-05-27T22:42:35.022Z,5.27
2018-05-27T22:45:03.672Z,5.53
2018-05-27T22:47:32.173Z,5.37
2018-05-27T22:50:01.433Z,5.80
2018-05-27T22:52:30.234Z,5.90
2018-05-27T22:54:58.743Z,6.20
2018-05-27T22:57:27.861Z,6.13
2018-05-27T22:59:56.606Z,5.80
2018-05-27T23:02:25.379Z,5.80
2018-05-27T23:04:53.876Z,5.67
2018-05-27T23:07:22.375Z,5.97
2018-05-27T23:09:51.676Z,5.63
2018-05-27T23:12:21.299Z,5.90
2018-05-27T23:14:50.569Z,5.73
2018-05-27T23:17:20.816Z,5.50
2018-05-27T23:19:50.086Z,5.90
2018-05-27T23:22:18.580Z,5.73
2018-05-27T23:24:47.085Z,6.10
2018-05-27T23:27:16.023Z,6.37
2018-05-27T23:29:45.296Z,6.27
2018-05-27T23:32:15.563Z,5.80
2018-05-27T23:34:44.061Z,5.90
2018-05-27T23:37:13.042Z,6.23
2018-05-27T23:39:41.533Z,6.33
2018-05-27T23:42:10.792Z,6.27
2018-05-27T23:44:40.077Z,5.97
2018-05-27T23:47:09.653Z,6.53
2018-05-27T23:49:38.162Z,6.30
2018-05-27T23:52:07.749Z,6.27
2018-05-27T23:54:37.079Z,6.17
2018-05-27T23:57:06.822Z,5.97
2018-05-27T23:59:35.477Z,6.40
